Time;durP1;ratioP1;P1;durP2;ratioP2;P2;SDS_P1;SDS_P2;PMS_P1;PMS_P2;Temp;Humidity;BMP_temperature;BMP_pressure;BME280_temperature;BME280_humidity;BME280_pressure;Samples;Min_cycle;Max_cycle;Signal;HPM_P1;HPM_P2
2020/12/30 00:04:25;;;;;;;9.57;1.67;;;3.20;99.90;;;;;;10353680;28;20172;-53
2020/12/30 00:09:46;;;;;;;4.03;1.40;;;3.10;99.90;;;;;;10355857;28;20115;-53
2020/12/30 00:15:11;;;;;;;4.88;1.52;;;3.00;99.90;;;;;;10358337;28;20038;-53
2020/12/30 00:20:32;;;;;;;4.60;1.70;;;3.00;99.90;;;;;;10361056;28;20077;-53
2020/12/30 00:25:53;;;;;;;2.28;0.80;;;2.90;99.90;;;;;;10362778;28;20060;-53
2020/12/30 00:31:15;;;;;;;2.75;0.80;;;2.90;99.90;;;;;;10361134;28;20516;-53
2020/12/30 00:36:37;;;;;;;3.83;0.95;;;3.00;99.90;;;;;;10359793;28;20034;-53
2020/12/30 00:41:58;;;;;;;1.05;0.55;;;2.90;99.90;;;;;;10364083;28;20051;-53
2020/12/30 00:47:19;;;;;;;0.73;0.35;;;3.00;99.90;;;;;;10358788;28;20030;-53
2020/12/30 00:52:40;;;;;;;1.75;0.43;;;3.10;99.90;;;;;;10361287;28;20092;-53
2020/12/30 00:58:01;;;;;;;3.40;0.73;;;3.20;99.90;;;;;;10361920;28;20108;-53
2020/12/30 01:03:22;;;;;;;2.63;1.38;;;3.10;99.90;;;;;;10362673;28;20041;-53
2020/12/30 01:08:43;;;;;;;3.03;0.90;;;3.20;99.90;;;;;;10378542;28;20056;-53
2020/12/30 01:14:04;;;;;;;4.38;1.27;;;3.10;99.90;;;;;;10362948;28;20041;-53
2020/12/30 01:19:25;;;;;;;0.80;0.40;;;3.20;99.90;;;;;;10372203;28;20061;-53
2020/12/30 01:24:46;;;;;;;2.90;0.90;;;3.00;99.90;;;;;;10362466;28;20042;-53
2020/12/30 01:30:07;;;;;;;4.30;0.70;;;3.00;99.90;;;;;;10358916;28;20044;-53
2020/12/30 01:35:28;;;;;;;2.13;0.85;;;3.00;99.90;;;;;;10370589;28;20080;-53
2020/12/30 01:40:54;;;;;;;2.13;1.05;;;3.10;99.90;;;;;;10357479;28;20069;-53
2020/12/30 01:46:15;;;;;;;1.95;0.70;;;3.10;99.90;;;;;;10372688;28;20054;-53
2020/12/30 01:51:41;;;;;;;4.28;1.08;;;3.20;99.90;;;;;;10359445;28;20624;-53
2020/12/30 01:57:03;;;;;;;3.20;1.23;;;3.30;99.90;;;;;;10369544;28;20061;-53
2020/12/30 02:02:28;;;;;;;1.83;0.85;;;3.30;99.90;;;;;;10367500;28;20045;-53
2020/12/30 02:07:50;;;;;;;7.50;1.50;;;3.20;99.90;;;;;;10367711;28;20061;-53
2020/12/30 02:13:11;;;;;;;8.77;2.15;;;3.20;99.90;;;;;;10367590;28;20447;-53
2020/12/30 02:18:32;;;;;;;3.45;1.67;;;3.30;99.90;;;;;;10366733;28;20832;-53
2020/12/30 02:23:55;;;;;;;6.75;2.15;;;3.30;99.90;;;;;;10363982;28;20631;-53
2020/12/30 02:29:16;;;;;;;4.20;1.92;;;3.40;99.90;;;;;;10364564;28;22171;-53
2020/12/30 02:34:37;;;;;;;5.45;1.85;;;3.40;99.90;;;;;;10366882;28;20061;-53
2020/12/30 02:39:58;;;;;;;5.88;2.17;;;3.40;99.90;;;;;;10365047;28;20034;-53
2020/12/30 02:45:19;;;;;;;7.65;2.13;;;3.40;99.90;;;;;;10366179;28;20131;-53
2020/12/30 02:50:40;;;;;;;7.18;2.40;;;3.30;99.90;;;;;;10364736;28;20049;-53
2020/12/30 02:56:01;;;;;;;9.50;2.42;;;3.40;99.90;;;;;;10369173;28;20478;-53
2020/12/30 03:01:22;;;;;;;11.52;2.83;;;3.40;99.90;;;;;;10362678;28;20141;-53
2020/12/30 03:06:43;;;;;;;10.32;2.33;;;3.30;99.90;;;;;;10367040;28;20034;-53
2020/12/30 03:12:04;;;;;;;6.22;1.63;;;3.40;99.90;;;;;;10373025;28;20553;-53
2020/12/30 03:17:25;;;;;;;7.18;2.17;;;3.40;99.90;;;;;;10369562;28;20428;-53
2020/12/30 03:22:46;;;;;;;6.47;2.33;;;3.40;99.90;;;;;;10364533;28;20646;-53
2020/12/30 03:28:06;;;;;;;6.55;2.45;;;3.30;99.90;;;;;;10362947;28;20430;-53
2020/12/30 03:33:27;;;;;;;4.10;1.38;;;3.40;99.90;;;;;;10364095;28;20877;-53
2020/12/30 03:38:49;;;;;;;6.90;1.30;;;3.30;99.90;;;;;;10363072;28;20439;-53
2020/12/30 03:44:10;;;;;;;5.50;1.45;;;3.30;99.90;;;;;;10361822;28;20400;-53
2020/12/30 03:49:30;;;;;;;6.63;2.53;;;3.30;99.90;;;;;;10362875;28;20042;-53
2020/12/30 03:54:51;;;;;;;3.92;1.05;;;3.40;99.90;;;;;;10365933;28;20391;-54
2020/12/30 04:00:13;;;;;;;7.53;1.42;;;3.40;99.90;;;;;;10363207;28;20049;-53
2020/12/30 04:05:34;;;;;;;5.03;1.80;;;3.40;99.90;;;;;;10379293;28;20037;-53
2020/12/30 04:10:55;;;;;;;5.30;1.67;;;3.40;99.90;;;;;;10366172;28;20570;-53
2020/12/30 04:16:25;;;;;;;4.20;1.02;;;3.40;99.90;;;;;;10363139;28;20038;-53
2020/12/30 04:21:46;;;;;;;9.80;2.80;;;3.50;99.90;;;;;;10361835;28;20045;-53
2020/12/30 04:27:07;;;;;;;2.92;1.25;;;3.50;99.90;;;;;;10361207;28;20103;-53
2020/12/30 04:32:28;;;;;;;1.92;1.00;;;3.50;99.90;;;;;;10360711;28;20051;-53
2020/12/30 04:37:49;;;;;;;1.80;0.88;;;3.50;99.90;;;;;;10361528;28;20191;-53
2020/12/30 04:43:12;;;;;;;4.30;0.85;;;3.50;99.90;;;;;;10365264;28;20045;-53
2020/12/30 04:48:34;;;;;;;2.72;1.10;;;3.50;99.90;;;;;;10364489;28;20037;-53
2020/12/30 04:53:59;;;;;;;1.48;0.60;;;3.50;99.90;;;;;;10362749;28;20045;-53
2020/12/30 04:59:22;;;;;;;0.50;0.30;;;3.40;99.90;;;;;;10359229;28;20905;-53
2020/12/30 05:04:43;;;;;;;1.58;0.30;;;3.50;99.90;;;;;;10373401;28;20045;-54
2020/12/30 05:10:04;;;;;;;0.73;0.32;;;3.50;99.90;;;;;;10361255;28;20060;-53
2020/12/30 05:15:25;;;;;;;3.72;0.45;;;3.50;99.90;;;;;;10367946;28;20069;-53
2020/12/30 05:20:46;;;;;;;1.23;0.32;;;3.50;99.90;;;;;;10354545;28;20433;-54
2020/12/30 05:26:08;;;;;;;1.42;0.52;;;3.40;99.90;;;;;;10355087;28;20068;-54
2020/12/30 05:31:29;;;;;;;2.45;0.98;;;3.40;99.90;;;;;;10359956;28;20045;-53
2020/12/30 05:36:52;;;;;;;1.27;0.85;;;3.50;99.90;;;;;;10359537;28;20076;-53
2020/12/30 05:42:18;;;;;;;0.75;0.47;;;3.50;99.90;;;;;;10362821;28;20060;-53
2020/12/30 05:47:39;;;;;;;0.85;0.30;;;3.50;99.90;;;;;;10360194;28;20037;-54
2020/12/30 05:53:14;;;;;;;0.47;0.10;;;3.50;99.90;;;;;;10356164;28;20088;-53
2020/12/30 05:58:44;;;;;;;3.92;0.65;;;3.50;99.90;;;;;;10372691;28;20041;-54
2020/12/30 06:04:16;;;;;;;3.35;0.70;;;3.50;99.90;;;;;;10360167;28;20265;-53
2020/12/30 06:09:40;;;;;;;0.98;0.30;;;3.50;99.90;;;;;;10361685;28;20045;-54
2020/12/30 06:15:02;;;;;;;0.63;0.10;;;3.60;99.90;;;;;;10361979;28;20060;-54
2020/12/30 06:20:26;;;;;;;1.30;0.22;;;3.60;99.90;;;;;;10361686;28;20084;-53
2020/12/30 06:25:47;;;;;;;0.57;0.30;;;3.70;99.90;;;;;;10361017;28;20555;-53
2020/12/30 06:31:08;;;;;;;0.85;0.30;;;3.80;99.90;;;;;;10363588;28;20085;-53
2020/12/30 06:36:29;;;;;;;1.20;0.47;;;3.80;99.90;;;;;;10359137;28;20034;-53
2020/12/30 06:41:58;;;;;;;1.45;0.70;;;3.80;99.90;;;;;;10363317;28;20447;-54
2020/12/30 06:47:39;;;;;;;;;;;3.80;99.90;;;;;;10368615;28;20754;-53
2020/12/30 06:53:26;;;;;;;0.98;0.75;;;3.80;99.90;;;;;;10363400;28;20000;-53
2020/12/30 06:58:49;;;;;;;2.10;0.40;;;3.90;99.90;;;;;;10363687;28;20494;-53
2020/12/30 07:04:10;;;;;;;1.13;0.40;;;3.80;99.90;;;;;;10363200;28;20136;-53
2020/12/30 07:09:33;;;;;;;1.38;0.45;;;3.80;99.90;;;;;;10365250;28;20398;-53
2020/12/30 07:14:56;;;;;;;1.70;0.73;;;3.80;99.90;;;;;;10368474;28;20038;-53
2020/12/30 07:20:24;;;;;;;1.85;0.38;;;3.70;99.90;;;;;;10363613;28;20046;-53
2020/12/30 07:25:50;;;;;;;2.08;0.50;;;3.70;99.90;;;;;;10366464;28;20625;-53
2020/12/30 07:31:12;;;;;;;3.33;1.20;;;3.70;99.90;;;;;;10362872;28;20145;-53
2020/12/30 07:36:33;;;;;;;1.98;0.57;;;3.70;99.90;;;;;;10366247;28;20060;-53
2020/12/30 07:41:55;;;;;;;1.77;0.30;;;3.70;99.90;;;;;;10372303;28;20048;-53
2020/12/30 07:47:17;;;;;;;3.45;0.98;;;3.60;99.90;;;;;;10362146;28;20034;-53
2020/12/30 07:52:38;;;;;;;2.63;1.45;;;3.60;99.90;;;;;;10364475;28;20375;-53
2020/12/30 07:57:59;;;;;;;4.95;1.50;;;3.60;99.90;;;;;;10364092;28;20075;-53
2020/12/30 08:03:22;;;;;;;5.72;1.80;;;3.60;99.90;;;;;;10367083;28;20050;-53
2020/12/30 08:08:44;;;;;;;4.55;1.50;;;3.60;99.90;;;;;;10363008;28;20045;-53
2020/12/30 08:14:09;;;;;;;2.28;1.13;;;3.60;99.90;;;;;;10362618;28;20493;-53
2020/12/30 08:19:48;;;;;;;6.35;1.73;;;3.60;99.90;;;;;;10362558;28;20044;-53
2020/12/30 08:25:09;;;;;;;4.13;1.20;;;3.50;99.90;;;;;;10362900;28;20837;-53
2020/12/30 08:30:33;;;;;;;2.85;0.80;;;3.50;99.90;;;;;;10361574;28;20050;-53
2020/12/30 08:36:08;;;;;;;3.28;1.25;;;3.60;99.90;;;;;;10364015;28;20044;-53
2020/12/30 08:41:32;;;;;;;4.07;1.67;;;3.70;99.90;;;;;;10364462;28;20060;-54
2020/12/30 08:46:57;;;;;;;1.75;0.60;;;3.70;99.90;;;;;;10367260;28;20033;-54
2020/12/30 08:52:20;;;;;;;3.25;1.48;;;3.80;99.90;;;;;;10364278;28;20571;-54
2020/12/30 08:57:48;;;;;;;4.18;1.90;;;3.80;99.90;;;;;;10363417;28;20706;-54
2020/12/30 09:03:15;;;;;;;3.00;1.20;;;3.90;99.90;;;;;;10362072;28;20182;-54
2020/12/30 09:08:37;;;;;;;2.15;0.95;;;4.00;99.90;;;;;;10362377;28;20065;-54
2020/12/30 09:13:58;;;;;;;1.73;0.68;;;4.00;99.90;;;;;;10374144;28;20038;-54
2020/12/30 09:19:19;;;;;;;2.53;1.05;;;4.20;99.90;;;;;;10355657;28;20042;-53
2020/12/30 09:24:42;;;;;;;1.08;0.50;;;4.40;99.90;;;;;;10357342;28;20050;-54
2020/12/30 09:30:19;;;;;;;1.27;0.40;;;4.60;99.90;;;;;;10360641;28;20497;-54
2020/12/30 09:35:40;;;;;;;1.27;0.73;;;4.60;99.90;;;;;;10378406;28;20030;-54
2020/12/30 09:41:12;;;;;;;2.28;1.58;;;4.60;99.90;;;;;;10383668;28;20092;-54
2020/12/30 09:46:33;;;;;;;1.67;0.68;;;4.80;99.90;;;;;;10380170;28;20025;-54
2020/12/30 09:51:56;;;;;;;1.27;0.70;;;5.10;99.90;;;;;;10383800;28;20462;-54
2020/12/30 09:57:17;;;;;;;3.13;0.90;;;5.40;99.90;;;;;;10363061;28;20033;-53
2020/12/30 10:02:38;;;;;;;1.20;0.40;;;5.40;99.90;;;;;;10362544;28;20084;-54
2020/12/30 10:07:59;;;;;;;1.17;0.63;;;5.40;99.90;;;;;;10383126;28;20041;-54
2020/12/30 10:13:21;;;;;;;1.67;0.50;;;5.70;99.90;;;;;;10362279;28;20041;-54
2020/12/30 10:18:42;;;;;;;1.98;0.60;;;5.90;99.90;;;;;;10393246;28;20382;-53
2020/12/30 10:24:03;;;;;;;1.92;0.80;;;6.10;99.90;;;;;;10405016;28;20076;-53
2020/12/30 10:29:28;;;;;;;1.75;0.65;;;6.40;99.90;;;;;;10379139;28;20030;-53
2020/12/30 10:34:49;;;;;;;1.30;0.40;;;6.80;99.90;;;;;;10371311;28;20045;-53
2020/12/30 10:40:10;;;;;;;0.98;0.50;;;6.80;99.90;;;;;;10364482;28;20038;-53
2020/12/30 10:45:31;;;;;;;4.03;1.48;;;6.80;99.90;;;;;;10365937;28;20065;-54
2020/12/30 10:50:52;;;;;;;1.17;0.40;;;6.90;99.90;;;;;;10394560;28;20685;-53
2020/12/30 10:56:15;;;;;;;1.48;0.35;;;7.20;99.90;;;;;;10373936;28;20095;-53
2020/12/30 11:01:36;;;;;;;0.93;0.35;;;7.60;99.90;;;;;;10365306;28;20045;-53
2020/12/30 11:06:57;;;;;;;1.88;0.50;;;7.40;99.90;;;;;;10364759;28;20034;-53
2020/12/30 11:12:18;;;;;;;1.38;0.30;;;7.50;99.90;;;;;;10368137;28;20040;-53
2020/12/30 11:17:39;;;;;;;2.30;0.60;;;9.00;99.90;;;;;;10383574;28;20533;-53
2020/12/30 11:23:00;;;;;;;5.05;0.75;;;10.40;99.90;;;;;;10373555;28;20498;-54
2020/12/30 11:28:21;;;;;;;0.22;0.00;;;10.90;99.90;;;;;;10363775;28;20065;-53
2020/12/30 11:33:42;;;;;;;0.22;0.00;;;9.30;99.90;;;;;;10363726;28;20165;-53
2020/12/30 11:39:03;;;;;;;1.05;0.22;;;8.20;99.90;;;;;;10389217;28;20482;-53
2020/12/30 11:44:24;;;;;;;5.18;0.17;;;7.60;99.90;;;;;;10373389;28;20470;-53
2020/12/30 11:49:45;;;;;;;2.38;0.17;;;7.30;99.90;;;;;;10396507;28;20034;-53
2020/12/30 11:55:06;;;;;;;0.13;0.00;;;6.90;99.90;;;;;;10381621;28;20026;-53
2020/12/30 12:00:27;;;;;;;0.30;0.17;;;6.70;99.90;;;;;;10362846;28;20140;-53
2020/12/30 12:05:48;;;;;;;0.28;0.05;;;6.50;99.90;;;;;;10399796;28;20030;-53
2020/12/30 12:11:10;;;;;;;0.20;0.10;;;6.40;99.90;;;;;;10361666;28;20037;-54
2020/12/30 12:16:31;;;;;;;0.93;0.30;;;6.80;99.90;;;;;;10365155;28;20038;-53
2020/12/30 12:21:52;;;;;;;0.17;0.10;;;7.60;99.90;;;;;;10389652;28;20049;-53
2020/12/30 12:27:13;;;;;;;1.92;0.63;;;9.50;99.90;;;;;;10368055;28;20448;-54
2020/12/30 12:32:34;;;;;;;1.50;0.30;;;9.50;99.90;;;;;;10359846;28;20910;-54
2020/12/30 12:38:06;;;;;;;2.17;0.50;;;8.90;99.90;;;;;;10383916;28;20034;-53
2020/12/30 12:43:27;;;;;;;1.15;0.40;;;9.10;99.90;;;;;;10361262;28;20445;-54
2020/12/30 12:48:48;;;;;;;0.60;0.10;;;9.20;99.90;;;;;;10359975;28;20706;-53
2020/12/30 12:54:09;;;;;;;1.13;0.20;;;8.30;99.90;;;;;;10360375;28;20537;-53
2020/12/30 12:59:34;;;;;;;0.22;0.10;;;7.60;99.90;;;;;;10363968;28;20030;-53
2020/12/30 13:04:55;;;;;;;0.40;0.10;;;7.10;99.90;;;;;;10368173;28;20053;-53
2020/12/30 13:10:16;;;;;;;0.43;0.30;;;6.80;99.90;;;;;;10372079;28;20037;-53
2020/12/30 13:15:36;;;;;;;1.75;1.10;;;6.60;99.90;;;;;;10358208;28;20065;-53
2020/12/30 13:20:58;;;;;;;0.08;0.03;;;6.30;99.90;;;;;;10379070;28;20107;-53
2020/12/30 13:26:19;;;;;;;0.30;0.00;;;6.20;99.90;;;;;;10399088;28;20901;-53
2020/12/30 13:31:40;;;;;;;0.17;0.10;;;6.20;99.90;;;;;;10370478;28;20437;-53
2020/12/30 13:37:00;;;;;;;0.52;0.10;;;6.10;99.90;;;;;;10357970;28;20519;-53
2020/12/30 13:42:21;;;;;;;0.38;0.00;;;6.00;99.90;;;;;;10358742;28;20700;-54
2020/12/30 13:47:42;;;;;;;0.98;0.30;;;6.00;99.90;;;;;;10369967;28;20455;-54
2020/12/30 13:53:03;;;;;;;0.38;0.28;;;6.20;99.90;;;;;;10368246;28;20033;-54
2020/12/30 13:58:24;;;;;;;0.08;0.00;;;6.70;99.90;;;;;;10369666;28;20038;-54
2020/12/30 14:03:46;;;;;;;0.43;0.10;;;6.80;99.90;;;;;;10365951;28;20034;-54
2020/12/30 14:09:07;;;;;;;0.35;0.20;;;6.60;99.90;;;;;;10367313;28;20036;-54
2020/12/30 14:14:28;;;;;;;2.33;0.50;;;6.30;99.90;;;;;;10405966;28;20469;-54
2020/12/30 14:19:49;;;;;;;1.02;0.30;;;6.10;99.90;;;;;;10369394;28;20030;-54
2020/12/30 14:25:10;;;;;;;0.50;0.20;;;6.00;99.90;;;;;;10366003;28;20084;-53
2020/12/30 14:30:31;;;;;;;1.05;0.32;;;5.90;99.90;;;;;;10365980;28;20045;-53
2020/12/30 14:35:52;;;;;;;0.80;0.35;;;5.80;99.90;;;;;;10364512;28;20122;-53
2020/12/30 14:41:13;;;;;;;1.15;0.35;;;6.00;99.90;;;;;;10374978;28;20046;-53
2020/12/30 14:46:36;;;;;;;2.08;0.20;;;6.00;99.90;;;;;;10379773;28;20042;-53
2020/12/30 14:51:57;;;;;;;0.55;0.28;;;6.10;99.90;;;;;;10376670;28;20141;-53
2020/12/30 14:57:18;;;;;;;1.40;0.35;;;6.10;99.90;;;;;;10368496;28;20125;-53
2020/12/30 15:02:40;;;;;;;0.75;0.30;;;6.00;99.90;;;;;;10364403;28;20038;-53
2020/12/30 15:08:01;;;;;;;1.80;0.30;;;6.00;99.90;;;;;;10376407;28;20228;-53
2020/12/30 15:13:22;;;;;;;0.95;0.30;;;6.00;99.90;;;;;;10367929;28;20121;-53
2020/12/30 15:18:43;;;;;;;1.98;0.65;;;5.90;99.90;;;;;;10364552;28;20106;-53
2020/12/30 15:24:04;;;;;;;0.55;0.22;;;5.90;99.90;;;;;;10363567;28;20041;-53
2020/12/30 15:29:25;;;;;;;0.73;0.13;;;5.90;99.90;;;;;;10361992;28;20673;-53
2020/12/30 15:34:48;;;;;;;5.45;0.77;;;5.90;99.90;;;;;;10363165;28;20046;-53
2020/12/30 15:40:09;;;;;;;1.90;0.30;;;5.90;99.90;;;;;;10363611;28;20050;-53
2020/12/30 15:45:30;;;;;;;2.70;0.45;;;5.80;99.90;;;;;;10365978;28;20033;-53
2020/12/30 15:50:51;;;;;;;1.02;0.50;;;5.80;99.90;;;;;;10364612;28;20080;-53
2020/12/30 15:56:16;;;;;;;2.85;0.43;;;5.80;99.90;;;;;;10367261;28;20101;-53
2020/12/30 16:01:37;;;;;;;1.40;0.43;;;5.70;99.90;;;;;;10365157;28;20065;-53
2020/12/30 16:06:58;;;;;;;1.50;0.57;;;5.70;99.90;;;;;;10365342;28;20025;-53
2020/12/30 16:12:19;;;;;;;1.60;0.50;;;5.70;99.90;;;;;;10362451;28;20057;-53
2020/12/30 16:17:40;;;;;;;2.72;0.93;;;5.60;99.90;;;;;;10363297;28;20650;-53
2020/12/30 16:23:01;;;;;;;1.60;0.90;;;5.60;99.90;;;;;;10364114;28;20049;-53
2020/12/30 16:28:22;;;;;;;0.63;0.40;;;5.50;99.90;;;;;;10360296;28;20104;-53
2020/12/30 16:33:49;;;;;;;1.15;0.57;;;5.50;99.90;;;;;;10364631;28;20041;-53
2020/12/30 16:39:10;;;;;;;2.10;0.50;;;5.50;99.90;;;;;;10361758;28;20073;-53
2020/12/30 16:44:32;;;;;;;1.92;0.50;;;5.50;99.90;;;;;;10366842;28;20136;-53
2020/12/30 16:49:53;;;;;;;1.60;0.55;;;5.60;99.90;;;;;;10360720;28;20105;-53
2020/12/30 16:55:14;;;;;;;0.65;0.40;;;5.60;99.90;;;;;;10359066;28;20091;-53
2020/12/30 17:00:35;;;;;;;1.38;0.73;;;5.60;99.90;;;;;;10356909;28;20290;-53
2020/12/30 17:05:56;;;;;;;1.05;0.50;;;5.60;99.90;;;;;;10360182;28;20068;-53
2020/12/30 17:11:17;;;;;;;2.22;0.30;;;5.60;99.90;;;;;;10365915;28;20433;-53
2020/12/30 17:16:38;;;;;;;0.32;0.20;;;5.70;99.90;;;;;;10362890;28;20517;-53
2020/12/30 17:22:00;;;;;;;1.88;0.65;;;5.60;99.90;;;;;;10358931;28;20526;-53
2020/12/30 17:27:20;;;;;;;0.45;0.20;;;5.50;99.90;;;;;;10361867;28;20150;-53
2020/12/30 17:32:42;;;;;;;2.13;0.40;;;5.40;99.90;;;;;;10366385;28;20073;-53
2020/12/30 17:38:03;;;;;;;1.98;0.70;;;5.30;99.90;;;;;;10357907;28;20800;-53
2020/12/30 17:43:24;;;;;;;11.85;1.15;;;5.40;99.90;;;;;;10355006;28;20373;-53
2020/12/30 17:48:45;;;;;;;2.05;0.80;;;5.30;99.90;;;;;;10371048;28;20046;-53
2020/12/30 17:54:06;;;;;;;1.52;0.43;;;5.20;99.90;;;;;;10375573;28;20042;-53
2020/12/30 17:59:27;;;;;;;1.60;0.38;;;5.10;99.90;;;;;;10357025;28;20136;-53
2020/12/30 18:04:50;;;;;;;1.88;0.60;;;5.00;99.90;;;;;;10359792;28;20434;-53
2020/12/30 18:10:11;;;;;;;1.73;0.65;;;4.90;99.90;;;;;;10361521;28;20038;-53
2020/12/30 18:15:32;;;;;;;2.25;0.60;;;5.00;99.90;;;;;;10364184;28;20034;-53
2020/12/30 18:20:53;;;;;;;1.33;0.60;;;4.90;99.90;;;;;;10356368;28;20141;-53
2020/12/30 18:26:27;;;;;;;1.13;0.50;;;4.90;99.90;;;;;;10356154;28;20040;-53
2020/12/30 18:31:48;;;;;;;1.60;0.70;;;4.90;99.90;;;;;;10357139;28;20412;-53
2020/12/30 18:37:08;;;;;;;1.92;0.70;;;4.90;99.90;;;;;;10360755;28;20793;-53
2020/12/30 18:42:29;;;;;;;0.70;0.43;;;4.90;99.90;;;;;;10363729;28;20046;-53
2020/12/30 18:47:50;;;;;;;2.65;0.75;;;4.80;99.90;;;;;;10364682;28;20051;-53
2020/12/30 18:53:11;;;;;;;1.27;0.73;;;4.80;99.90;;;;;;10363974;28;20068;-53
2020/12/30 18:58:32;;;;;;;3.97;0.75;;;4.70;99.90;;;;;;10363673;28;20042;-53
2020/12/30 19:03:54;;;;;;;2.67;1.30;;;4.80;99.90;;;;;;10366911;28;20156;-53
2020/12/30 19:09:15;;;;;;;2.13;0.88;;;4.80;99.90;;;;;;10366431;28;20049;-53
2020/12/30 19:14:36;;;;;;;9.07;0.90;;;4.70;99.90;;;;;;10368407;28;20041;-53
2020/12/30 19:19:57;;;;;;;4.78;1.02;;;4.80;99.90;;;;;;10366939;28;20145;-53
2020/12/30 19:25:18;;;;;;;3.40;1.30;;;4.70;99.90;;;;;;10363832;28;20096;-53
2020/12/30 19:30:39;;;;;;;2.92;1.38;;;4.70;99.90;;;;;;10361827;28;20033;-53
2020/12/30 19:36:00;;;;;;;2.83;1.00;;;4.70;99.90;;;;;;10363868;28;20041;-53
2020/12/30 19:41:22;;;;;;;2.53;1.02;;;4.60;99.90;;;;;;10364823;28;20529;-53
2020/12/30 19:46:43;;;;;;;2.83;1.35;;;4.50;99.90;;;;;;10361567;28;20041;-53
2020/12/30 19:52:09;;;;;;;4.22;1.50;;;4.50;99.90;;;;;;10363429;28;20096;-53
2020/12/30 19:57:29;;;;;;;8.82;1.80;;;4.50;99.90;;;;;;10365806;28;20120;-53
2020/12/30 20:02:50;;;;;;;1.70;1.17;;;4.50;99.90;;;;;;10366391;28;20042;-53
2020/12/30 20:08:12;;;;;;;10.55;1.77;;;4.40;99.90;;;;;;10376451;28;20085;-53
2020/12/30 20:13:33;;;;;;;2.35;1.33;;;4.40;99.90;;;;;;10363243;28;20044;-53
2020/12/30 20:18:54;;;;;;;3.42;1.63;;;4.30;99.90;;;;;;10362219;28;20054;-53
2020/12/30 20:24:17;;;;;;;3.92;1.67;;;4.40;99.90;;;;;;10360337;28;20084;-53
2020/12/30 20:29:38;;;;;;;5.47;1.65;;;4.20;99.90;;;;;;10362772;28;20045;-53
2020/12/30 20:34:59;;;;;;;5.88;1.55;;;4.20;99.90;;;;;;10357550;28;20053;-53
2020/12/30 20:40:20;;;;;;;7.72;2.03;;;4.30;99.90;;;;;;10376293;28;20045;-53
2020/12/30 20:45:40;;;;;;;3.33;1.73;;;4.10;99.90;;;;;;10360170;28;20090;-53
2020/12/30 20:51:03;;;;;;;8.57;2.88;;;4.10;99.90;;;;;;10359290;28;20041;-53
2020/12/30 20:56:24;;;;;;;8.35;2.85;;;4.00;99.90;;;;;;10371383;28;20057;-53
2020/12/30 21:01:45;;;;;;;9.15;3.63;;;3.90;99.90;;;;;;10363205;28;20167;-53
2020/12/30 21:07:06;;;;;;;6.88;2.67;;;3.90;99.90;;;;;;10362377;28;20117;-53
2020/12/30 21:12:27;;;;;;;8.20;3.00;;;3.90;99.90;;;;;;10365200;28;20597;-53
2020/12/30 21:17:48;;;;;;;11.25;3.53;;;3.80;99.90;;;;;;10361408;28;20649;-53
2020/12/30 21:23:09;;;;;;;10.18;3.67;;;3.80;99.90;;;;;;10363423;28;20475;-53
2020/12/30 21:28:30;;;;;;;6.93;2.92;;;3.90;99.90;;;;;;10363203;28;21864;-53
2020/12/30 21:33:51;;;;;;;9.13;3.55;;;3.90;99.90;;;;;;10357729;28;20550;-53
2020/12/30 21:39:12;;;;;;;14.70;3.53;;;3.90;99.90;;;;;;10358712;28;20486;-53
2020/12/30 21:44:33;;;;;;;11.85;3.85;;;3.80;99.90;;;;;;10359252;28;20046;-53
2020/12/30 21:49:54;;;;;;;8.30;2.20;;;3.80;99.90;;;;;;10362333;28;20065;-53
2020/12/30 21:55:15;;;;;;;9.82;3.25;;;3.80;99.90;;;;;;10359018;28;20030;-53
2020/12/30 22:00:36;;;;;;;8.35;2.65;;;3.80;99.90;;;;;;10368402;28;20069;-53
2020/12/30 22:05:57;;;;;;;6.07;2.35;;;3.90;99.90;;;;;;10360365;28;20041;-53
2020/12/30 22:11:19;;;;;;;5.80;2.20;;;3.90;99.90;;;;;;10366814;28;20042;-53
2020/12/30 22:16:40;;;;;;;5.38;2.53;;;3.90;99.90;;;;;;10366869;28;20045;-53
2020/12/30 22:22:01;;;;;;;6.00;2.40;;;3.90;99.90;;;;;;10363807;28;20042;-53
2020/12/30 22:27:22;;;;;;;5.90;2.58;;;3.90;99.90;;;;;;10366083;28;20063;-52
2020/12/30 22:32:43;;;;;;;5.18;2.75;;;3.90;99.90;;;;;;10369428;28;20041;-52
2020/12/30 22:38:04;;;;;;;4.25;1.42;;;3.90;99.90;;;;;;10365073;28;20370;-52
2020/12/30 22:43:25;;;;;;;3.58;1.40;;;4.00;99.90;;;;;;10365065;28;20049;-52
2020/12/30 22:48:46;;;;;;;4.15;1.85;;;3.90;99.90;;;;;;10355501;28;20255;-52
2020/12/30 22:54:07;;;;;;;4.07;1.45;;;4.00;99.90;;;;;;10354598;28;20046;-52
2020/12/30 22:59:29;;;;;;;4.40;1.63;;;3.90;99.90;;;;;;10359977;28;20358;-52
2020/12/30 23:04:50;;;;;;;2.97;0.73;;;3.90;99.90;;;;;;10357612;28;21915;-52
2020/12/30 23:10:11;;;;;;;2.50;0.80;;;3.90;99.90;;;;;;10356961;28;20638;-52
2020/12/30 23:15:32;;;;;;;1.10;0.30;;;4.00;99.90;;;;;;10365308;28;20045;-52
2020/12/30 23:20:53;;;;;;;0.75;0.10;;;4.00;99.90;;;;;;10368369;28;20064;-52
2020/12/30 23:26:14;;;;;;;1.13;0.50;;;4.00;99.90;;;;;;10370039;28;20132;-52
2020/12/30 23:31:35;;;;;;;0.55;0.10;;;4.00;99.90;;;;;;10369395;28;20038;-52
2020/12/30 23:36:56;;;;;;;0.75;0.25;;;4.00;99.90;;;;;;10366595;28;20041;-52
2020/12/30 23:42:23;;;;;;;0.90;0.30;;;4.00;99.90;;;;;;10367233;28;20107;-52
2020/12/30 23:47:44;;;;;;;3.85;0.82;;;3.90;99.90;;;;;;10367767;28;20124;-52
2020/12/30 23:53:05;;;;;;;1.80;0.40;;;3.90;99.90;;;;;;10366711;28;20056;-52
2020/12/30 23:58:26;;;;;;;1.30;0.68;;;4.00;99.90;;;;;;10366227;28;20088;-52
